Flight Track Log - Related Links

Times and Time Zones

All times are in EDT time to prevent confusion due to time zone crossing. See the CRQ102 flight status page for this flight to view local times or setup timezone preferences in your user account.

Time Position Orientation Groundspeed Altitude Reporting Facility
EDT Latitude Longitude Course Direction KTS MPH feet Rate Location/Type
Wed 08:24:38 PM 49.6667 -74.7500 234° Southwest 170 196 7,100  Level Montreal Center
Wed 08:25:38 PM 49.6333 -74.8167 232° Southwest 170 196 8,100 950 Climbing Montreal Center
Wed 08:26:38 PM 49.6000 -74.8833 232° Southwest 170 196 9,000 850 Climbing Montreal Center
Wed 08:27:38 PM 49.5833 -74.9333 243° Southwest 170 196 9,800 750 Climbing Montreal Center
Wed 08:28:38 PM 49.5500 -75.0000 232° Southwest 170 196 10,500 750 Climbing Montreal Center
Wed 08:29:38 PM 49.5167 -75.0667 232° Southwest 170 196 11,300 850 Climbing Montreal Center
Wed 08:30:38 PM 49.5000 -75.1167 243° Southwest 160 184 12,200 750 Climbing Montreal Center
Wed 08:31:38 PM 49.4667 -75.1667 224° Southwest 160 184 12,800 650 Climbing Montreal Center
Wed 08:32:38 PM 49.4500 -75.2167 243° Southwest 160 184 13,500 550 Climbing Montreal Center
Wed 08:33:38 PM 49.4167 -75.2667 224° Southwest 160 184 13,900 200 Climbing Montreal Center
Wed 08:34:38 PM 49.4000 -75.3500 253° West 170 196 13,900  Level Montreal Center
Wed 08:35:38 PM 49.3667 -75.4000 224° Southwest 180 207 13,900 50 Level Montreal Center
Wed 08:36:38 PM 49.3333 -75.4500 224° Southwest 180 207 14,000 50 Climbing Montreal Center
Wed 08:37:38 PM 49.3000 -75.5333 238° Southwest 180 207 14,000  Level Montreal Center
Wed 08:38:38 PM 49.2667 -75.5833 224° Southwest 190 219 14,000  Level Montreal Center
Wed 08:39:38 PM 49.2333 -75.6500 233° Southwest 190 219 14,000  Level Montreal Center
Wed 08:40:38 PM 49.2000 -75.7167 233° Southwest 190 219 14,000 -50 Level Montreal Center
Wed 08:41:38 PM 49.1833 -75.7833 249° West 190 219 13,900 -50 Descending Montreal Center
Wed 08:42:38 PM 49.1500 -75.8667 239° Southwest 190 219 13,900 50 Level Montreal Center
Wed 08:43:38 PM 49.1167 -75.9167 224° Southwest 190 219 14,000  Climbing Montreal Center
Wed 08:44:38 PM 49.0833 -75.9667 225° Southwest 190 219 13,900 -100 Descending Montreal Center
Wed 08:45:38 PM 49.0500 -76.0500 239° Southwest 190 219 13,800 -50 Descending Montreal Center
Wed 08:46:38 PM 49.0167 -76.1000 225° Southwest 190 219 13,800  Level Montreal Center
Wed 08:47:38 PM 48.9833 -76.1667 233° Southwest 190 219 13,800 50 Level Montreal Center
Wed 08:48:38 PM 48.9500 -76.2167 225° Southwest 190 219 13,900  Climbing Montreal Center
Wed 08:49:38 PM 48.9167 -76.3000 239° Southwest 190 219 13,800 -50 Descending Montreal Center
Wed 08:50:38 PM 48.8833 -76.3500 225° Southwest 190 219 13,800 50 Level Montreal Center
Wed 08:51:38 PM 48.8500 -76.4000 225° Southwest 190 219 13,900 50 Climbing Montreal Center
Wed 08:52:38 PM 48.8167 -76.4833 239° Southwest 190 219 13,900  Level Montreal Center
Wed 08:53:38 PM 48.7833 -76.5333 225° Southwest 190 219 13,900  Level Montreal Center
Wed 08:54:38 PM 48.7500 -76.6000 233° Southwest 190 219 13,900 -50 Level Montreal Center
Wed 08:55:38 PM 48.7167 -76.6500 225° Southwest 190 219 13,800  Descending Montreal Center
Wed 08:56:38 PM 48.6833 -76.7000 225° Southwest 190 219 13,900  Climbing Montreal Center
Wed 08:57:38 PM 48.6500 -76.7833 239° Southwest 190 219 13,800 -50 Descending Montreal Center
Wed 08:58:38 PM 48.6000 -76.8333 213° Southwest 190 219 13,800 50 Level Montreal Center
Wed 08:59:38 PM 48.5667 -76.8833 225° Southwest 190 219 13,900 100 Climbing Montreal Center
Wed 09:00:38 PM 48.5333 -76.9500 233° Southwest 190 219 14,000 50 Climbing Montreal Center
Wed 09:01:38 PM 48.4833 -77.0000 214° Southwest 190 219 14,000 50 Level Montreal Center
Wed 09:02:38 PM 48.4500 -77.0500 225° Southwest 190 219 14,100  Climbing Montreal Center
Wed 09:03:38 PM 48.4167 -77.1333 239° Southwest 190 219 14,000 -200 Descending Montreal Center
Wed 09:04:38 PM 48.3833 -77.1833 225° Southwest 190 219 13,700 -900 Descending Montreal Center
Wed 09:05:38 PM 48.3500 -77.2500 233° Southwest 210 242 12,200 -1,100 Descending Montreal Center
Wed 09:06:38 PM 48.3167 -77.3333 239° Southwest 220 253 11,500 -700 Descending Montreal Center
Wed 09:08:00 PM 48.2503 -77.3995 233° Southwest  Level FlightAware Approximate
Wed 09:15:00 PM 48.0500 -77.7667 214° Southwest  Level FlightAware Approximate
Wed 09:16:00 PM 48.0533 -77.7828 214° Southwest  Level Estimated
Wed 09:17:00 PM 48.0533 -77.7828 214° Southwest  Level Estimated
Wed 09:18:00 PM 48.0533 -77.7828 214° Southwest  Level Estimated
Wed 09:19:00 PM 48.0533 -77.7828 214° Southwest  Level Estimated
Wed 09:20:00 PM 48.0533 -77.7828 214° Southwest  Level Estimated

Login

Don't have an account? Register now (free) for customized features, flight alerts, and more!